createdAt,value
2022-09-15T00:01:56.883Z,2.40
2022-09-15T00:04:01.875Z,1.70
2022-09-15T00:06:07.897Z,1.60
2022-09-15T00:08:13.201Z,2.10
2022-09-15T00:10:18.372Z,2.30
2022-09-15T00:12:23.281Z,2.20
2022-09-15T00:14:28.309Z,2.20
2022-09-15T00:16:33.649Z,1.40
2022-09-15T00:18:39.820Z,1.40
2022-09-15T00:20:45.871Z,1.40
2022-09-15T00:22:50.959Z,1.40
2022-09-15T00:24:55.995Z,1.20
2022-09-15T00:27:00.697Z,1.30
2022-09-15T00:29:05.893Z,1.10
2022-09-15T00:31:13.406Z,1.30
2022-09-15T00:33:20.055Z,1.40
2022-09-15T00:35:24.924Z,1.30
2022-09-15T00:37:30.234Z,1.30
2022-09-15T00:39:35.398Z,1.10
2022-09-15T00:41:40.994Z,1.30
2022-09-15T00:43:50.769Z,1.40
2022-09-15T00:45:55.750Z,1.40
2022-09-15T00:48:00.925Z,1.20
2022-09-15T00:50:09.875Z,1.20
2022-09-15T00:52:21.528Z,1.30
2022-09-15T00:54:34.486Z,1.10
2022-09-15T00:56:41.580Z,1.20
2022-09-15T00:58:50.725Z,1.30
2022-09-15T01:00:59.044Z,1.30
2022-09-15T01:03:04.454Z,1.00
2022-09-15T01:05:12.469Z,1.10
2022-09-15T01:07:22.297Z,1.10
2022-09-15T01:09:37.208Z,1.20
2022-09-15T01:11:42.920Z,1.00
2022-09-15T01:13:47.617Z,1.30
2022-09-15T01:15:59.814Z,1.20
2022-09-15T01:18:15.485Z,1.10
2022-09-15T01:21:04.322Z,1.30
2022-09-15T01:23:34.353Z,1.10
2022-09-15T01:25:56.220Z,1.20
2022-09-15T01:28:28.313Z,1.10
2022-09-15T01:30:37.405Z,1.30
2022-09-15T01:33:16.700Z,1.10
2022-09-15T01:35:32.973Z,1.10
2022-09-15T01:37:43.347Z,1.20
2022-09-15T01:39:51.517Z,1.30
2022-09-15T01:41:59.025Z,1.10
2022-09-15T01:44:08.089Z,1.10
2022-09-15T01:46:15.019Z,1.20
2022-09-15T01:48:24.154Z,1.30
2022-09-15T01:50:33.262Z,1.40
2022-09-15T01:52:41.099Z,1.20
2022-09-15T01:54:48.581Z,1.10
2022-09-15T01:56:53.243Z,1.20
2022-09-15T01:58:58.053Z,1.00
2022-09-15T02:01:07.551Z,1.20
2022-09-15T02:03:21.055Z,1.10
2022-09-15T02:05:30.785Z,1.20
2022-09-15T02:07:43.291Z,1.10
2022-09-15T02:09:53.963Z,1.10
2022-09-15T02:12:05.549Z,1.40
2022-09-15T02:14:16.480Z,1.00
2022-09-15T02:16:24.039Z,1.10
2022-09-15T02:18:37.476Z,1.10
2022-09-15T02:20:48.729Z,1.40
2022-09-15T02:23:01.629Z,0.90
2022-09-15T02:25:09.702Z,1.40
2022-09-15T02:27:23.948Z,1.20
2022-09-15T02:29:32.122Z,1.00
2022-09-15T02:31:39.091Z,1.30
2022-09-15T02:33:48.588Z,1.20
2022-09-15T02:35:54.335Z,1.00
2022-09-15T02:38:00.619Z,1.10
2022-09-15T02:40:07.429Z,1.20
2022-09-15T02:42:12.447Z,1.10
2022-09-15T02:44:17.112Z,1.20
2022-09-15T02:46:23.142Z,1.20
2022-09-15T02:48:27.760Z,1.20
2022-09-15T02:50:32.517Z,1.10
2022-09-15T02:52:37.058Z,1.30
2022-09-15T02:54:41.661Z,1.20
2022-09-15T02:56:46.416Z,1.10
2022-09-15T02:58:51.256Z,1.10
2022-09-15T03:00:55.965Z,1.10
2022-09-15T03:03:00.649Z,1.30
2022-09-15T03:05:06.142Z,1.30
2022-09-15T03:07:10.785Z,1.20
2022-09-15T03:09:15.362Z,1.30
2022-09-15T03:11:22.256Z,1.00
2022-09-15T03:13:26.991Z,1.80
2022-09-15T03:15:31.715Z,1.10
2022-09-15T03:17:38.036Z,1.30
2022-09-15T03:19:42.712Z,1.40
2022-09-15T03:21:47.512Z,1.30
2022-09-15T03:23:52.342Z,1.50
2022-09-15T03:25:57.107Z,1.10
2022-09-15T03:28:01.928Z,1.30
2022-09-15T03:30:08.635Z,1.30
2022-09-15T03:32:13.273Z,1.70
2022-09-15T03:34:18.156Z,1.40
2022-09-15T03:36:22.733Z,1.30
2022-09-15T03:38:29.389Z,1.40
2022-09-15T03:40:34.187Z,1.30
2022-09-15T03:42:38.920Z,1.40
2022-09-15T03:44:43.597Z,1.40
2022-09-15T03:46:48.242Z,1.30
2022-09-15T03:48:52.846Z,1.40
2022-09-15T03:50:57.543Z,1.60
2022-09-15T03:53:02.741Z,1.30
2022-09-15T03:55:08.826Z,1.40
2022-09-15T03:57:13.503Z,1.40
2022-09-15T03:59:19.004Z,1.40
2022-09-15T04:01:24.050Z,2.90
2022-09-15T04:03:28.821Z,1.50
2022-09-15T04:05:33.668Z,1.50
2022-09-15T04:07:38.381Z,1.40
2022-09-15T04:09:43.192Z,1.50
2022-09-15T04:11:48.011Z,1.60
2022-09-15T04:13:54.032Z,1.30
2022-09-15T04:16:03.223Z,1.30
2022-09-15T04:18:07.924Z,1.30
2022-09-15T04:20:13.380Z,1.60
2022-09-15T04:22:18.160Z,1.60
2022-09-15T04:24:22.948Z,1.40
2022-09-15T04:26:30.854Z,1.70
2022-09-15T04:28:40.991Z,1.30
2022-09-15T04:30:46.158Z,1.40
2022-09-15T04:32:50.781Z,1.70
2022-09-15T04:34:55.464Z,1.50
2022-09-15T04:37:03.305Z,1.40
2022-09-15T04:39:08.072Z,1.50
2022-09-15T04:41:13.287Z,1.40
2022-09-15T04:43:17.969Z,1.70
2022-09-15T04:45:22.599Z,1.40
2022-09-15T04:47:27.281Z,1.30
2022-09-15T04:49:31.923Z,1.70
2022-09-15T04:51:36.735Z,1.80
2022-09-15T04:53:41.468Z,1.50
2022-09-15T04:55:46.253Z,1.70
2022-09-15T04:57:50.910Z,1.40
2022-09-15T04:59:55.602Z,1.30
2022-09-15T05:02:00.281Z,1.60
2022-09-15T05:04:06.059Z,1.50
2022-09-15T05:06:12.534Z,1.30
2022-09-15T05:08:17.199Z,1.40
2022-09-15T05:10:21.851Z,1.30
2022-09-15T05:12:26.588Z,1.50
2022-09-15T05:14:31.252Z,1.40
2022-09-15T05:16:36.012Z,1.40
2022-09-15T05:18:42.088Z,1.40
2022-09-15T05:20:46.815Z,1.30
2022-09-15T05:22:51.491Z,1.20
2022-09-15T05:24:56.254Z,1.40
2022-09-15T05:27:01.098Z,1.40
2022-09-15T05:29:05.752Z,1.50
2022-09-15T05:31:12.766Z,1.60
2022-09-15T05:33:17.527Z,1.60
2022-09-15T05:35:22.462Z,1.60
2022-09-15T05:37:27.205Z,1.70
2022-09-15T05:39:31.907Z,1.90
2022-09-15T05:41:36.719Z,1.60
2022-09-15T05:43:41.545Z,1.30
2022-09-15T05:45:53.602Z,1.30
2022-09-15T05:47:58.288Z,1.60
2022-09-15T05:50:03.001Z,1.40
2022-09-15T05:52:07.818Z,1.20
2022-09-15T05:54:12.534Z,1.40
2022-09-15T05:56:17.877Z,1.50
2022-09-15T05:58:22.633Z,1.40
2022-09-15T06:00:27.439Z,1.10
2022-09-15T06:02:32.256Z,1.30
2022-09-15T06:04:37.079Z,1.30
2022-09-15T06:06:41.826Z,1.40
2022-09-15T06:08:48.685Z,1.20
2022-09-15T06:10:54.085Z,1.50
2022-09-15T06:12:58.782Z,3.20
2022-09-15T06:15:03.630Z,1.30
2022-09-15T06:17:08.380Z,1.00
2022-09-15T06:19:13.223Z,1.20
2022-09-15T06:21:19.381Z,1.40
2022-09-15T06:23:24.099Z,1.10
2022-09-15T06:25:28.728Z,1.30
2022-09-15T06:27:33.694Z,1.50
2022-09-15T06:29:38.424Z,1.20
2022-09-15T06:31:43.097Z,1.10
2022-09-15T06:33:49.491Z,1.20
2022-09-15T06:35:54.319Z,1.30
2022-09-15T06:37:59.067Z,1.20
2022-09-15T06:40:04.622Z,1.20
2022-09-15T06:42:13.329Z,1.30
2022-09-15T06:44:19.885Z,1.30
2022-09-15T06:46:26.604Z,1.30
2022-09-15T06:48:34.330Z,1.40
2022-09-15T06:50:39.075Z,1.80
2022-09-15T06:52:43.880Z,1.20
2022-09-15T06:54:48.544Z,1.30
2022-09-15T06:56:53.394Z,1.50
2022-09-15T06:58:58.839Z,1.50
2022-09-15T07:01:04.903Z,1.50
2022-09-15T07:03:12.583Z,1.20
2022-09-15T07:05:17.416Z,1.60
2022-09-15T07:07:22.085Z,1.30
2022-09-15T07:09:26.776Z,1.40
2022-09-15T07:11:32.074Z,1.00
2022-09-15T07:13:37.501Z,1.60
2022-09-15T07:15:49.194Z,1.40
2022-09-15T07:17:53.817Z,1.50
2022-09-15T07:19:58.768Z,1.20
2022-09-15T07:22:03.475Z,1.30
2022-09-15T07:24:08.940Z,1.30
2022-09-15T07:26:15.560Z,1.40
2022-09-15T07:28:20.210Z,1.10
2022-09-15T07:30:24.935Z,1.30
2022-09-15T07:32:29.758Z,1.30
2022-09-15T07:34:34.663Z,1.30
2022-09-15T07:36:39.332Z,1.30
2022-09-15T07:38:45.958Z,1.40
2022-09-15T07:40:50.640Z,1.20
2022-09-15T07:42:55.350Z,1.20
2022-09-15T07:45:00.044Z,1.10
2022-09-15T07:47:04.897Z,1.10
2022-09-15T07:49:11.137Z,1.20
2022-09-15T07:51:16.908Z,1.40
2022-09-15T07:53:22.078Z,1.20
2022-09-15T07:55:27.022Z,1.20
2022-09-15T07:57:31.688Z,1.20
2022-09-15T07:59:40.559Z,1.10
2022-09-15T08:01:46.022Z,1.50
2022-09-15T08:03:52.626Z,1.50
2022-09-15T08:06:00.096Z,1.20
2022-09-15T08:08:05.316Z,1.00
2022-09-15T08:10:10.991Z,1.20
2022-09-15T08:12:16.003Z,1.30
2022-09-15T08:14:20.717Z,1.20
2022-09-15T08:16:26.212Z,1.30
2022-09-15T08:18:31.053Z,1.00
2022-09-15T08:20:37.922Z,1.20
2022-09-15T08:22:42.689Z,1.00
2022-09-15T08:24:47.422Z,1.00
2022-09-15T08:26:52.591Z,1.00
2022-09-15T08:28:57.259Z,1.00
2022-09-15T08:31:03.970Z,0.90
2022-09-15T08:33:08.725Z,0.90
2022-09-15T08:35:13.447Z,1.00
2022-09-15T08:37:18.167Z,1.00
2022-09-15T08:39:22.870Z,1.10
2022-09-15T08:41:32.045Z,1.10
2022-09-15T08:43:43.785Z,0.90
2022-09-15T08:45:53.395Z,1.00
2022-09-15T08:48:01.352Z,1.10
2022-09-15T08:50:13.171Z,1.00
2022-09-15T08:52:23.325Z,1.00
2022-09-15T08:54:30.980Z,1.00
2022-09-15T08:56:37.349Z,0.80
2022-09-15T08:58:42.057Z,1.00
2022-09-15T09:00:48.818Z,1.00
2022-09-15T09:03:09.084Z,0.90
2022-09-15T09:05:28.393Z,1.00
2022-09-15T09:07:51.754Z,1.00
2022-09-15T09:10:02.888Z,1.30
2022-09-15T09:12:20.783Z,1.30
2022-09-15T09:14:37.569Z,1.30
2022-09-15T09:17:00.418Z,1.00
2022-09-15T09:19:18.865Z,0.80
2022-09-15T09:21:29.350Z,1.00
2022-09-15T09:23:39.173Z,1.00
2022-09-15T09:25:44.890Z,0.90
2022-09-15T09:27:50.653Z,1.20
2022-09-15T09:30:01.744Z,1.10
2022-09-15T09:32:19.828Z,1.10
2022-09-15T09:34:33.811Z,1.00
2022-09-15T09:36:38.563Z,1.20
2022-09-15T09:38:45.262Z,1.20
2022-09-15T09:40:50.967Z,1.10
2022-09-15T09:42:55.780Z,1.10
2022-09-15T09:45:00.583Z,1.10
2022-09-15T09:47:05.376Z,0.90
2022-09-15T09:49:15.325Z,1.30
2022-09-15T09:51:35.015Z,1.10
2022-09-15T09:53:39.899Z,1.70
2022-09-15T09:55:44.672Z,1.40
2022-09-15T09:57:49.409Z,1.30
2022-09-15T09:59:54.119Z,1.90
2022-09-15T10:02:15.037Z,1.60
2022-09-15T10:04:22.686Z,2.30
2022-09-15T10:06:32.498Z,1.70
2022-09-15T10:08:38.768Z,1.50
2022-09-15T10:10:51.410Z,2.10
2022-09-15T10:12:59.201Z,0.90
2022-09-15T10:15:07.669Z,1.00
2022-09-15T10:17:15.135Z,1.50
2022-09-15T10:19:22.728Z,0.80
2022-09-15T10:21:27.524Z,1.20
2022-09-15T10:23:33.594Z,1.00
2022-09-15T10:25:58.072Z,1.20
2022-09-15T10:28:14.618Z,0.90
2022-09-15T10:30:21.056Z,0.80
2022-09-15T10:32:29.515Z,0.80
2022-09-15T10:34:36.180Z,1.40
2022-09-15T10:36:40.933Z,1.00
2022-09-15T10:38:48.721Z,1.30
2022-09-15T10:41:03.177Z,1.00
2022-09-15T10:43:20.226Z,0.90
2022-09-15T10:45:33.209Z,0.90
2022-09-15T10:47:53.138Z,1.00
2022-09-15T10:50:12.633Z,0.80
2022-09-15T10:52:29.664Z,0.90
2022-09-15T10:54:50.302Z,1.00
2022-09-15T10:57:02.600Z,0.90
2022-09-15T10:59:38.203Z,0.90
2022-09-15T11:02:03.018Z,1.00
2022-09-15T11:04:44.549Z,0.80
2022-09-15T11:06:54.638Z,1.10
2022-09-15T11:09:13.247Z,0.90
2022-09-15T11:11:29.208Z,0.70
2022-09-15T11:13:46.992Z,1.10
2022-09-15T11:16:06.388Z,1.10
2022-09-15T11:18:34.834Z,0.90
2022-09-15T11:21:00.449Z,0.90
2022-09-15T11:23:11.211Z,0.70
2022-09-15T11:25:20.463Z,1.00
2022-09-15T11:27:30.129Z,0.70
2022-09-15T11:29:41.868Z,0.80
2022-09-15T11:31:52.505Z,0.70
2022-09-15T11:34:02.908Z,0.80
2022-09-15T11:36:13.109Z,0.90
2022-09-15T11:38:28.333Z,0.80
2022-09-15T11:40:39.473Z,0.70
2022-09-15T11:42:51.566Z,0.90
2022-09-15T11:44:58.177Z,0.70
2022-09-15T11:47:14.115Z,0.70
2022-09-15T11:49:22.169Z,0.70
2022-09-15T11:51:28.928Z,0.70
2022-09-15T11:53:38.270Z,0.80
2022-09-15T11:55:49.202Z,0.80
2022-09-15T11:58:01.923Z,1.00
2022-09-15T12:00:11.757Z,0.90
2022-09-15T12:02:23.677Z,0.60
2022-09-15T12:04:32.076Z,0.50
2022-09-15T12:06:45.894Z,0.60
2022-09-15T12:08:57.640Z,0.60
2022-09-15T12:11:07.582Z,0.70
2022-09-15T12:13:18.694Z,0.70
2022-09-15T12:15:23.796Z,0.70
2022-09-15T12:17:35.710Z,0.90
2022-09-15T12:19:49.144Z,0.90
2022-09-15T12:21:58.751Z,0.70
2022-09-15T12:24:12.308Z,0.90
2022-09-15T12:26:20.809Z,0.80
2022-09-15T12:28:39.905Z,0.90
2022-09-15T12:30:44.594Z,0.90
2022-09-15T12:32:49.267Z,1.10
2022-09-15T12:35:04.033Z,0.80
2022-09-15T12:37:13.708Z,1.00
2022-09-15T12:39:29.473Z,1.00
2022-09-15T12:41:34.623Z,1.00
2022-09-15T12:43:39.401Z,0.90
2022-09-15T12:45:54.691Z,1.10
2022-09-15T12:48:05.920Z,1.10
2022-09-15T12:50:25.402Z,0.90
2022-09-15T12:52:30.511Z,1.10
2022-09-15T12:54:39.596Z,1.10
2022-09-15T12:56:53.393Z,1.00
2022-09-15T12:59:05.998Z,0.80
2022-09-15T13:01:45.705Z,0.90
2022-09-15T13:04:23.266Z,1.10
2022-09-15T13:06:28.712Z,0.80
2022-09-15T13:08:48.154Z,0.80
2022-09-15T13:11:04.852Z,1.00
2022-09-15T13:13:31.231Z,0.80
2022-09-15T13:15:44.863Z,1.00
2022-09-15T13:17:50.523Z,0.90
2022-09-15T13:19:58.697Z,1.00
2022-09-15T13:22:12.601Z,1.00
2022-09-15T13:24:20.245Z,0.80
2022-09-15T13:26:27.377Z,0.90
2022-09-15T13:28:32.434Z,1.00
2022-09-15T13:30:47.851Z,0.80
2022-09-15T13:33:01.249Z,0.80
2022-09-15T13:35:34.232Z,0.90
2022-09-15T13:38:30.750Z,0.80
2022-09-15T13:41:03.095Z,1.00
2022-09-15T13:43:27.768Z,0.80
2022-09-15T13:45:47.645Z,1.20
2022-09-15T13:48:06.128Z,1.00
2022-09-15T13:50:18.716Z,0.90
2022-09-15T13:52:43.241Z,1.00
2022-09-15T13:55:15.520Z,0.90
2022-09-15T13:58:54.567Z,1.00
2022-09-15T13:59:45.844Z,1.10
2022-09-15T14:01:51.023Z,0.90
2022-09-15T14:04:01.435Z,1.20
2022-09-15T14:06:14.093Z,0.80
2022-09-15T14:08:22.566Z,1.00
2022-09-15T14:10:45.578Z,1.20
2022-09-15T14:12:51.482Z,1.10
2022-09-15T14:14:57.879Z,1.40
2022-09-15T14:17:02.785Z,1.10
2022-09-15T14:19:30.582Z,1.10
2022-09-15T14:21:45.745Z,1.30
2022-09-15T14:23:52.810Z,1.10
2022-09-15T14:25:59.164Z,1.10
2022-09-15T14:28:22.777Z,1.10
2022-09-15T14:30:30.899Z,1.10
2022-09-15T14:32:43.789Z,1.00
2022-09-15T14:34:49.284Z,0.90
2022-09-15T14:37:03.370Z,1.00
2022-09-15T14:39:19.128Z,0.80
2022-09-15T14:41:23.996Z,1.00
2022-09-15T14:43:32.805Z,1.00
2022-09-15T14:48:14.060Z,0.90
2022-09-15T14:50:20.625Z,1.90
2022-09-15T14:52:30.626Z,1.00
2022-09-15T14:54:38.049Z,1.20
2022-09-15T14:56:44.675Z,1.10
2022-09-15T14:58:54.043Z,1.20
2022-09-15T15:01:04.573Z,1.00
2022-09-15T15:03:23.587Z,1.00
2022-09-15T15:05:34.649Z,0.80
2022-09-15T15:07:40.672Z,2.40
2022-09-15T15:09:48.571Z,1.20
2022-09-15T15:11:57.667Z,1.40
2022-09-15T15:14:05.833Z,1.00
2022-09-15T15:16:19.053Z,1.10
2022-09-15T15:18:37.984Z,1.10
2022-09-15T15:20:50.374Z,1.20
2022-09-15T15:23:17.320Z,0.90
2022-09-15T15:25:28.425Z,1.20
2022-09-15T15:27:50.838Z,1.00
2022-09-15T15:29:55.578Z,1.40
2022-09-15T15:32:09.996Z,1.30
2022-09-15T15:34:24.818Z,1.40
2022-09-15T15:36:30.379Z,1.30
2022-09-15T15:38:40.968Z,1.10
2022-09-15T15:40:48.438Z,1.40
2022-09-15T15:43:00.015Z,1.50
2022-09-15T15:45:22.718Z,1.20
2022-09-15T15:47:29.910Z,1.30
2022-09-15T15:49:42.356Z,1.20
2022-09-15T15:51:56.281Z,1.40
2022-09-15T15:54:00.882Z,1.30
2022-09-15T15:56:07.829Z,1.90
2022-09-15T15:58:13.974Z,1.00
2022-09-15T16:00:24.953Z,1.40
2022-09-15T16:02:30.376Z,1.10
2022-09-15T16:04:35.025Z,1.20
2022-09-15T16:06:40.509Z,1.10
2022-09-15T16:08:48.255Z,1.50
2022-09-15T16:10:56.257Z,1.20
2022-09-15T16:13:00.836Z,1.20
2022-09-15T16:15:12.280Z,1.10
2022-09-15T16:17:16.908Z,0.90
2022-09-15T16:19:21.518Z,0.90
2022-09-15T16:21:29.853Z,0.90
2022-09-15T16:23:34.454Z,0.90
2022-09-15T16:25:45.439Z,0.80
2022-09-15T16:27:50.132Z,1.00
2022-09-15T16:29:54.828Z,1.00
2022-09-15T16:31:59.819Z,0.80
2022-09-15T16:34:04.475Z,1.10
2022-09-15T16:36:13.197Z,1.00
2022-09-15T16:38:18.317Z,1.40
2022-09-15T16:40:24.338Z,1.50
2022-09-15T16:42:29.485Z,1.40
2022-09-15T16:44:34.185Z,1.40
2022-09-15T16:46:38.991Z,1.30
2022-09-15T16:48:44.488Z,1.30
2022-09-15T16:51:09.524Z,1.60
2022-09-15T16:53:16.178Z,3.10
2022-09-15T16:55:27.986Z,1.80
2022-09-15T16:57:32.572Z,2.00
2022-09-15T16:59:37.290Z,1.60
2022-09-15T17:01:41.990Z,1.60
2022-09-15T17:03:46.639Z,1.50
2022-09-15T17:05:52.727Z,2.80
2022-09-15T17:07:57.718Z,1.60
2022-09-15T17:10:02.637Z,3.40
2022-09-15T17:12:10.904Z,2.70
2022-09-15T17:14:17.127Z,2.70
2022-09-15T17:16:21.920Z,1.50
2022-09-15T17:18:27.229Z,2.30
2022-09-15T17:20:37.175Z,1.20
2022-09-15T17:22:44.035Z,1.60
2022-09-15T17:24:48.829Z,1.80
2022-09-15T17:26:53.856Z,1.50
2022-09-15T17:28:59.052Z,1.60
2022-09-15T17:31:05.413Z,1.20
2022-09-15T17:33:14.496Z,1.70
2022-09-15T17:35:23.073Z,1.40
2022-09-15T17:37:27.876Z,1.70
2022-09-15T17:39:32.672Z,1.90
2022-09-15T17:41:37.448Z,1.90
2022-09-15T17:43:42.127Z,2.00
2022-09-15T17:45:47.585Z,2.50
2022-09-15T17:47:52.795Z,3.10
2022-09-15T17:49:57.539Z,1.80
2022-09-15T17:52:02.559Z,1.30
2022-09-15T17:54:08.768Z,1.40
2022-09-15T17:56:14.262Z,1.20
2022-09-15T17:58:19.457Z,1.50
2022-09-15T18:00:26.686Z,1.40
2022-09-15T18:02:32.207Z,1.70
2022-09-15T18:04:37.395Z,2.30
2022-09-15T18:06:45.513Z,1.70
2022-09-15T18:08:50.789Z,1.50
2022-09-15T18:10:56.194Z,1.90
2022-09-15T18:13:02.119Z,1.50
2022-09-15T18:15:14.334Z,1.40
2022-09-15T18:17:19.337Z,1.30
2022-09-15T18:19:24.416Z,1.80
2022-09-15T18:21:30.740Z,1.50
2022-09-15T18:23:35.820Z,1.50
2022-09-15T18:25:41.135Z,1.40
2022-09-15T18:27:46.748Z,1.60
2022-09-15T18:29:51.796Z,2.00
2022-09-15T18:31:56.714Z,3.00
2022-09-15T18:34:01.970Z,1.80
2022-09-15T18:36:08.378Z,1.90
2022-09-15T18:38:14.065Z,2.10
2022-09-15T18:40:20.021Z,1.30
2022-09-15T18:42:27.363Z,1.60
2022-09-15T18:44:34.784Z,1.20
2022-09-15T18:46:39.976Z,1.50
2022-09-15T18:48:45.052Z,1.30
2022-09-15T18:50:49.682Z,1.30
2022-09-15T18:52:54.548Z,1.50
2022-09-15T18:54:59.618Z,1.40
2022-09-15T18:57:04.918Z,1.60
2022-09-15T18:59:10.227Z,1.40
2022-09-15T19:01:15.382Z,1.40
2022-09-15T19:03:20.736Z,1.30
2022-09-15T19:05:26.457Z,1.60
2022-09-15T19:07:31.535Z,1.40
2022-09-15T19:09:36.547Z,1.60
2022-09-15T19:11:41.713Z,1.30
2022-09-15T19:13:46.532Z,1.30
2022-09-15T19:15:53.439Z,1.40
2022-09-15T19:17:58.658Z,1.70
2022-09-15T19:20:04.699Z,1.40
2022-09-15T19:22:09.913Z,1.40
2022-09-15T19:24:15.178Z,1.30
2022-09-15T19:26:20.239Z,1.60
2022-09-15T19:28:25.372Z,1.10
2022-09-15T19:30:30.493Z,1.40
2022-09-15T19:32:35.499Z,1.00
2022-09-15T19:34:41.033Z,1.30
2022-09-15T19:36:46.057Z,1.10
2022-09-15T19:38:51.089Z,1.00
2022-09-15T19:41:06.717Z,1.10
2022-09-15T19:43:11.730Z,1.30
2022-09-15T19:45:16.657Z,1.30
2022-09-15T19:47:21.632Z,1.00
2022-09-15T19:49:26.823Z,1.30
2022-09-15T19:51:31.705Z,1.50
2022-09-15T19:53:37.236Z,1.60
2022-09-15T19:55:42.054Z,1.30
2022-09-15T19:57:47.214Z,1.10
2022-09-15T19:59:52.075Z,1.00
2022-09-15T20:01:56.964Z,0.90
2022-09-15T20:06:27.753Z,0.70
2022-09-15T20:08:36.349Z,0.60
2022-09-15T20:10:41.656Z,0.70
2022-09-15T20:12:46.317Z,0.60
2022-09-15T20:14:51.268Z,0.70
2022-09-15T20:16:58.716Z,0.70
2022-09-15T20:19:05.709Z,0.70
2022-09-15T20:21:17.990Z,0.80
2022-09-15T20:23:31.698Z,0.70
2022-09-15T20:25:36.350Z,0.70
2022-09-15T20:27:41.020Z,0.80
2022-09-15T20:29:45.933Z,0.70
2022-09-15T20:31:50.937Z,0.40
2022-09-15T20:33:55.706Z,0.60
2022-09-15T20:36:05.301Z,0.40
2022-09-15T20:38:10.193Z,0.40
2022-09-15T20:40:14.992Z,0.60
2022-09-15T20:42:19.738Z,0.60
2022-09-15T20:44:24.559Z,0.70
2022-09-15T20:46:29.506Z,0.80
2022-09-15T20:48:36.297Z,0.80
2022-09-15T20:50:40.939Z,0.80
2022-09-15T20:52:45.780Z,0.60
2022-09-15T20:54:50.454Z,0.50
2022-09-15T20:56:55.086Z,0.80
2022-09-15T20:59:00.590Z,0.60
2022-09-15T21:01:07.306Z,0.80
2022-09-15T21:03:11.964Z,0.80
2022-09-15T21:05:16.754Z,0.70
2022-09-15T21:07:21.537Z,0.60
2022-09-15T21:09:26.222Z,0.80
2022-09-15T21:11:30.982Z,0.80
2022-09-15T21:13:36.723Z,0.60
2022-09-15T21:15:41.426Z,1.20
2022-09-15T21:17:46.500Z,0.90
2022-09-15T21:19:51.174Z,1.00
2022-09-15T21:21:55.927Z,1.00
2022-09-15T21:24:02.191Z,1.20
2022-09-15T21:26:08.891Z,0.90
2022-09-15T21:28:13.715Z,1.00
2022-09-15T21:30:18.618Z,0.90
2022-09-15T21:32:23.465Z,0.90
2022-09-15T21:34:28.161Z,1.00
2022-09-15T21:36:32.905Z,0.90
2022-09-15T21:38:39.363Z,0.80
2022-09-15T21:40:48.573Z,0.90
2022-09-15T21:42:53.232Z,0.90
2022-09-15T21:44:57.932Z,1.00
2022-09-15T21:47:02.625Z,0.90
2022-09-15T21:49:07.338Z,0.70
2022-09-15T21:51:14.346Z,0.90
2022-09-15T21:53:19.732Z,0.90
2022-09-15T21:55:24.411Z,0.80
2022-09-15T21:57:29.093Z,0.90
2022-09-15T21:59:33.828Z,0.90
2022-09-15T22:01:39.438Z,1.00
2022-09-15T22:03:47.442Z,1.00
2022-09-15T22:05:52.143Z,1.10
2022-09-15T22:07:59.474Z,1.20
2022-09-15T22:10:08.137Z,1.10
2022-09-15T22:12:12.832Z,1.20
2022-09-15T22:14:17.971Z,1.20
2022-09-15T22:16:24.510Z,1.40
2022-09-15T22:18:29.476Z,1.50
2022-09-15T22:20:34.176Z,1.50
2022-09-15T22:22:38.806Z,1.90
2022-09-15T22:24:43.463Z,1.60
2022-09-15T22:26:48.059Z,1.50
2022-09-15T22:28:53.158Z,1.70
2022-09-15T22:31:00.641Z,1.70
2022-09-15T22:33:05.265Z,1.50
2022-09-15T22:35:10.629Z,1.60
2022-09-15T22:37:15.238Z,1.60
2022-09-15T22:39:19.988Z,1.70
2022-09-15T22:41:24.713Z,1.70
2022-09-15T22:43:29.323Z,1.60
2022-09-15T22:45:34.001Z,1.70
2022-09-15T22:47:38.666Z,1.70
2022-09-15T22:49:43.263Z,1.80
2022-09-15T22:51:47.919Z,1.80
2022-09-15T22:53:55.578Z,1.60
2022-09-15T22:56:07.993Z,1.90
2022-09-15T22:58:12.663Z,2.00
2022-09-15T23:00:17.882Z,1.80
2022-09-15T23:02:22.631Z,2.00
2022-09-15T23:04:27.414Z,1.80
2022-09-15T23:06:33.918Z,2.00
2022-09-15T23:08:38.615Z,1.90
2022-09-15T23:10:43.325Z,2.10
2022-09-15T23:12:47.965Z,2.10
2022-09-15T23:14:52.619Z,2.00
2022-09-15T23:16:57.156Z,2.00
2022-09-15T23:19:02.087Z,1.80
2022-09-15T23:21:08.506Z,2.30
2022-09-15T23:23:13.195Z,2.30
2022-09-15T23:25:17.988Z,2.10
2022-09-15T23:27:22.673Z,2.20
2022-09-15T23:29:27.333Z,2.10
2022-09-15T23:31:32.164Z,2.20
2022-09-15T23:33:36.867Z,2.90
2022-09-15T23:35:41.695Z,2.30
2022-09-15T23:37:46.424Z,2.30
2022-09-15T23:39:51.121Z,2.00
2022-09-15T23:41:55.934Z,2.10
2022-09-15T23:44:00.657Z,2.20
2022-09-15T23:46:06.400Z,2.00
2022-09-15T23:48:12.286Z,2.30
2022-09-15T23:50:20.395Z,2.70
2022-09-15T23:52:25.137Z,2.20
2022-09-15T23:54:29.794Z,2.20
2022-09-15T23:56:34.450Z,1.90
2022-09-15T23:58:39.380Z,2.20
